createdAt,value
2023-02-16T00:00:47.427Z,37.00
2023-02-16T00:03:14.065Z,37.00
2023-02-16T00:05:40.937Z,37.10
2023-02-16T00:08:07.783Z,37.00
2023-02-16T00:10:34.398Z,37.10
2023-02-16T00:13:01.029Z,37.20
2023-02-16T00:15:27.682Z,37.10
2023-02-16T00:17:54.507Z,37.20
2023-02-16T00:20:21.152Z,37.20
2023-02-16T00:22:47.810Z,37.10
2023-02-16T00:25:14.457Z,37.20
2023-02-16T00:27:41.107Z,37.20
2023-02-16T00:30:07.819Z,37.30
2023-02-16T00:32:34.508Z,37.20
2023-02-16T00:35:01.135Z,37.20
2023-02-16T00:37:27.787Z,37.20
2023-02-16T00:39:54.635Z,37.20
2023-02-16T00:42:21.268Z,37.30
2023-02-16T00:44:48.124Z,37.30
2023-02-16T00:47:14.767Z,37.30
2023-02-16T00:49:41.606Z,37.30
2023-02-16T00:52:08.233Z,37.30
2023-02-16T00:54:35.074Z,37.30
2023-02-16T00:57:01.727Z,37.30
2023-02-16T00:59:28.562Z,37.40
2023-02-16T01:01:55.259Z,37.40
2023-02-16T01:04:22.170Z,37.40
2023-02-16T01:06:48.832Z,37.40
2023-02-16T01:09:15.464Z,37.40
2023-02-16T01:11:42.097Z,37.30
2023-02-16T01:14:08.740Z,37.40
2023-02-16T01:16:35.370Z,37.40
2023-02-16T01:19:02.010Z,37.30
2023-02-16T01:21:28.628Z,37.30
2023-02-16T01:23:55.246Z,37.30
2023-02-16T01:26:21.890Z,37.40
2023-02-16T01:28:48.531Z,37.40
2023-02-16T01:31:15.462Z,37.40
2023-02-16T01:33:42.365Z,37.50
2023-02-16T01:36:09.212Z,37.50
2023-02-16T01:38:35.859Z,37.40
2023-02-16T01:41:02.792Z,37.50
2023-02-16T01:43:29.654Z,37.50
2023-02-16T01:45:56.285Z,37.50
2023-02-16T01:48:22.924Z,37.50
2023-02-16T01:50:49.580Z,37.50
2023-02-16T01:53:16.227Z,37.50
2023-02-16T01:55:42.855Z,37.30
2023-02-16T01:58:09.489Z,37.40
2023-02-16T02:00:36.126Z,37.40
2023-02-16T02:03:02.800Z,37.40
2023-02-16T02:05:29.683Z,37.50
2023-02-16T02:07:56.543Z,37.50
2023-02-16T02:10:23.197Z,37.60
2023-02-16T02:12:49.865Z,37.60
2023-02-16T02:15:16.542Z,37.50
2023-02-16T02:17:43.257Z,37.60
2023-02-16T02:20:09.909Z,37.50
2023-02-16T02:22:36.554Z,37.50
2023-02-16T02:25:03.416Z,37.50
2023-02-16T02:27:30.066Z,37.50
2023-02-16T02:29:56.767Z,37.60
2023-02-16T02:32:42.293Z,37.50
2023-02-16T02:35:08.944Z,37.40
2023-02-16T02:37:35.576Z,37.50
2023-02-16T02:40:02.271Z,37.60
2023-02-16T02:42:28.928Z,37.60
2023-02-16T02:44:55.574Z,37.50
2023-02-16T02:47:22.229Z,37.50
2023-02-16T02:49:48.880Z,37.50
2023-02-16T02:52:15.522Z,37.60
2023-02-16T02:54:42.387Z,37.60
2023-02-16T02:57:09.016Z,37.50
2023-02-16T02:59:35.677Z,37.50
2023-02-16T03:02:02.335Z,37.50
2023-02-16T03:04:29.020Z,37.50
2023-02-16T03:06:55.677Z,37.50
2023-02-16T03:09:22.313Z,37.60
2023-02-16T03:11:48.956Z,37.50
2023-02-16T03:14:15.595Z,37.50
2023-02-16T03:16:42.286Z,37.50
2023-02-16T03:19:08.987Z,37.60
2023-02-16T03:21:35.618Z,37.60
2023-02-16T03:24:02.282Z,37.60
2023-02-16T03:26:28.930Z,37.50
2023-02-16T03:28:55.596Z,37.50
2023-02-16T03:31:22.337Z,37.50
2023-02-16T03:33:49.072Z,37.60
2023-02-16T03:36:15.716Z,37.60
2023-02-16T03:38:42.340Z,37.60
2023-02-16T03:41:09.000Z,37.60
2023-02-16T03:43:35.648Z,37.60
2023-02-16T03:46:02.374Z,37.60
2023-02-16T03:48:29.078Z,37.60
2023-02-16T03:50:55.753Z,37.50
2023-02-16T03:53:22.401Z,37.50
2023-02-16T03:55:49.036Z,37.50
2023-02-16T03:58:15.709Z,37.60
2023-02-16T04:00:42.369Z,37.70
2023-02-16T04:03:09.108Z,37.70
2023-02-16T04:05:35.763Z,37.50
2023-02-16T04:08:02.395Z,37.80
2023-02-16T04:10:29.085Z,37.80
2023-02-16T04:12:55.742Z,37.70
2023-02-16T04:15:22.419Z,37.80
2023-02-16T04:17:49.042Z,37.80
2023-02-16T04:20:15.885Z,37.70
2023-02-16T04:22:42.523Z,37.70
2023-02-16T04:25:09.185Z,37.50
2023-02-16T04:27:35.838Z,37.70
2023-02-16T04:30:02.580Z,37.70
2023-02-16T04:32:29.695Z,37.70
2023-02-16T04:34:56.352Z,37.60
2023-02-16T04:37:23.036Z,37.70
2023-02-16T04:39:49.663Z,37.60
2023-02-16T04:42:16.291Z,37.70
2023-02-16T04:44:42.965Z,37.70
2023-02-16T04:47:09.643Z,37.70
2023-02-16T04:49:36.304Z,37.70
2023-02-16T04:52:02.970Z,37.70
2023-02-16T04:54:29.599Z,37.70
2023-02-16T04:56:56.249Z,37.60
2023-02-16T04:59:23.122Z,37.60
2023-02-16T05:01:49.786Z,37.60
2023-02-16T05:04:16.694Z,37.70
2023-02-16T05:06:43.381Z,37.60
2023-02-16T05:09:10.041Z,37.60
2023-02-16T05:11:36.728Z,37.60
2023-02-16T05:14:03.605Z,37.60
2023-02-16T05:16:30.259Z,37.70
2023-02-16T05:18:58.703Z,37.60
2023-02-16T05:21:25.596Z,37.60
2023-02-16T05:23:52.241Z,38.60
2023-02-16T05:26:18.884Z,37.50
2023-02-16T05:28:45.526Z,37.60
2023-02-16T05:31:12.264Z,37.60
2023-02-16T05:33:38.960Z,37.60
2023-02-16T05:36:05.604Z,37.50
2023-02-16T05:38:32.278Z,37.60
2023-02-16T05:40:58.956Z,37.50
2023-02-16T05:43:25.588Z,37.80
2023-02-16T05:45:52.256Z,37.60
2023-02-16T05:48:18.948Z,37.60
2023-02-16T05:50:45.809Z,37.50
2023-02-16T05:53:12.456Z,37.60
2023-02-16T05:55:39.098Z,37.70
2023-02-16T05:58:05.735Z,37.50
2023-02-16T06:00:32.415Z,37.60
2023-02-16T06:02:59.090Z,37.50
2023-02-16T06:05:25.743Z,37.60
2023-02-16T06:07:52.641Z,37.60
2023-02-16T06:10:19.296Z,37.70
2023-02-16T06:12:45.937Z,37.60
2023-02-16T06:15:12.518Z,37.60
2023-02-16T06:17:39.378Z,37.50
2023-02-16T06:20:06.490Z,37.70
2023-02-16T06:22:33.338Z,37.70
2023-02-16T06:25:00.012Z,37.60
2023-02-16T06:27:26.656Z,37.70
2023-02-16T06:29:53.343Z,37.70
2023-02-16T06:32:20.147Z,37.70
2023-02-16T06:34:46.893Z,37.80
2023-02-16T06:37:13.547Z,37.60
2023-02-16T06:39:40.224Z,37.70
2023-02-16T06:42:06.887Z,37.70
2023-02-16T06:44:33.552Z,37.80
2023-02-16T06:52:36.183Z,37.70
2023-02-16T06:55:02.810Z,37.80
2023-02-16T06:57:29.460Z,37.80
2023-02-16T06:59:56.127Z,37.70
2023-02-16T07:02:23.030Z,37.70
2023-02-16T07:04:49.701Z,37.70
2023-02-16T07:07:16.345Z,37.60
2023-02-16T07:09:42.982Z,37.80
2023-02-16T07:12:09.625Z,37.70
2023-02-16T07:14:36.257Z,37.70
2023-02-16T07:17:02.886Z,37.80
2023-02-16T07:19:29.753Z,37.80
2023-02-16T07:21:56.418Z,37.70
2023-02-16T07:24:23.083Z,37.70
2023-02-16T07:26:49.730Z,37.70
2023-02-16T07:29:16.362Z,37.80
2023-02-16T07:31:43.104Z,37.80
2023-02-16T07:34:09.790Z,37.70
2023-02-16T07:36:36.454Z,37.70
2023-02-16T07:39:03.120Z,37.80
2023-02-16T07:41:29.980Z,37.70
2023-02-16T07:43:56.613Z,37.70
2023-02-16T07:46:23.261Z,37.80
2023-02-16T07:48:49.913Z,37.80
2023-02-16T07:51:16.567Z,37.90
2023-02-16T07:53:43.221Z,37.90
2023-02-16T07:56:09.870Z,37.70
2023-02-16T07:58:36.803Z,37.80
2023-02-16T08:01:03.726Z,37.90
2023-02-16T08:03:30.509Z,38.00
2023-02-16T08:05:57.221Z,37.80
2023-02-16T08:08:23.864Z,37.80
2023-02-16T08:10:50.526Z,37.80
2023-02-16T08:13:17.167Z,37.90
2023-02-16T08:15:44.043Z,37.80
2023-02-16T08:18:10.694Z,37.80
2023-02-16T08:20:57.637Z,38.00
2023-02-16T08:23:23.949Z,38.10
2023-02-16T08:25:50.600Z,37.90
2023-02-16T08:28:17.249Z,37.80
2023-02-16T08:30:43.977Z,37.90
2023-02-16T08:33:10.624Z,37.90
2023-02-16T08:35:37.258Z,37.80
2023-02-16T08:38:03.899Z,37.80
2023-02-16T08:40:30.537Z,37.90
2023-02-16T08:42:57.429Z,37.90
2023-02-16T08:45:24.059Z,37.90
2023-02-16T08:47:50.675Z,37.80
2023-02-16T08:50:17.341Z,37.80
2023-02-16T08:52:44.041Z,38.00
2023-02-16T08:55:10.704Z,38.00
2023-02-16T08:57:37.340Z,38.00
2023-02-16T09:00:04.263Z,38.00
2023-02-16T09:02:30.958Z,38.10
2023-02-16T09:04:57.643Z,38.10
2023-02-16T09:07:24.316Z,38.10
2023-02-16T09:09:50.987Z,38.10
2023-02-16T09:12:17.646Z,38.30
2023-02-16T09:14:44.291Z,38.20
2023-02-16T09:17:10.973Z,38.10
2023-02-16T09:19:37.639Z,38.20
2023-02-16T09:22:04.555Z,38.30
2023-02-16T09:24:31.198Z,38.20
2023-02-16T09:26:57.848Z,38.20
2023-02-16T09:29:24.482Z,38.10
2023-02-16T09:31:51.175Z,38.10
2023-02-16T09:34:18.090Z,38.10
2023-02-16T09:36:44.780Z,38.10
2023-02-16T09:39:11.455Z,38.00
2023-02-16T09:41:38.120Z,38.00
2023-02-16T09:44:04.777Z,38.00
2023-02-16T09:46:31.478Z,38.00
2023-02-16T09:48:58.134Z,37.90
2023-02-16T09:51:33.735Z,37.90
2023-02-16T09:54:01.225Z,37.90
2023-02-16T09:56:27.908Z,37.90
2023-02-16T09:58:54.618Z,37.90
2023-02-16T10:01:21.369Z,37.90
2023-02-16T10:03:48.115Z,37.90
2023-02-16T10:06:15.074Z,37.80
2023-02-16T10:08:41.788Z,37.80
2023-02-16T10:11:08.449Z,37.90
2023-02-16T10:13:35.103Z,37.90
2023-02-16T10:16:01.793Z,37.90
2023-02-16T10:18:28.484Z,38.00
2023-02-16T10:20:55.124Z,37.90
2023-02-16T10:23:21.780Z,37.90
2023-02-16T10:25:48.424Z,38.00
2023-02-16T10:28:15.053Z,38.00
2023-02-16T10:30:41.709Z,38.10
2023-02-16T10:33:08.404Z,38.00
2023-02-16T10:35:35.038Z,38.20
2023-02-16T10:38:01.694Z,38.10
2023-02-16T10:40:28.398Z,38.20
2023-02-16T10:42:55.281Z,38.20
2023-02-16T10:45:21.931Z,38.10
2023-02-16T10:47:48.566Z,38.10
2023-02-16T10:50:15.221Z,38.20
2023-02-16T10:52:41.890Z,38.10
2023-02-16T10:55:08.540Z,38.30
2023-02-16T10:57:35.176Z,38.20
2023-02-16T11:00:01.834Z,38.20
2023-02-16T11:02:28.494Z,38.30
2023-02-16T11:04:55.170Z,38.20
2023-02-16T11:07:21.834Z,38.30
2023-02-16T11:09:48.494Z,38.40
2023-02-16T11:12:15.386Z,38.30
2023-02-16T11:14:42.032Z,38.30
2023-02-16T11:17:08.659Z,38.30
2023-02-16T11:19:35.337Z,38.30
2023-02-16T11:22:02.001Z,38.50
2023-02-16T11:24:28.660Z,38.40
2023-02-16T11:26:55.318Z,38.50
2023-02-16T11:29:22.003Z,38.60
2023-02-16T11:31:48.749Z,38.40
2023-02-16T11:34:15.482Z,38.30
2023-02-16T11:36:42.135Z,38.70
2023-02-16T11:39:11.131Z,38.60
2023-02-16T11:41:37.886Z,38.50
2023-02-16T11:44:04.548Z,39.50
2023-02-16T11:46:31.460Z,38.70
2023-02-16T11:48:58.157Z,38.60
2023-02-16T11:51:25.038Z,38.60
2023-02-16T11:53:51.681Z,38.70
2023-02-16T11:56:18.318Z,38.50
2023-02-16T11:58:45.186Z,38.50
2023-02-16T12:01:11.840Z,38.60
2023-02-16T12:03:38.490Z,38.60
2023-02-16T12:06:05.148Z,38.70
2023-02-16T12:08:31.789Z,38.70
2023-02-16T12:10:58.444Z,38.70
2023-02-16T12:13:25.085Z,38.60
2023-02-16T12:15:51.730Z,38.70
2023-02-16T12:18:18.421Z,38.90
2023-02-16T12:20:45.277Z,38.80
2023-02-16T12:23:11.935Z,38.80
2023-02-16T12:25:38.560Z,38.70
2023-02-16T12:28:05.197Z,38.80
2023-02-16T12:30:31.988Z,39.10
2023-02-16T12:32:58.687Z,38.90
2023-02-16T12:35:25.323Z,38.70
2023-02-16T12:37:51.973Z,38.80
2023-02-16T12:40:18.643Z,38.90
2023-02-16T12:42:45.350Z,38.80
2023-02-16T12:45:12.025Z,38.90
2023-02-16T12:47:38.673Z,38.90
2023-02-16T12:50:05.302Z,38.90
2023-02-16T12:52:31.977Z,38.90
2023-02-16T12:54:58.626Z,39.00
2023-02-16T12:57:25.264Z,39.10
2023-02-16T12:59:51.906Z,38.80
2023-02-16T13:02:18.545Z,38.90
2023-02-16T13:04:45.192Z,39.00
2023-02-16T13:07:11.839Z,38.90
2023-02-16T13:09:38.480Z,38.90
2023-02-16T13:12:05.110Z,38.90
2023-02-16T13:14:31.970Z,39.00
2023-02-16T13:16:58.632Z,39.00
2023-02-16T13:19:25.301Z,39.00
2023-02-16T13:21:52.178Z,38.90
2023-02-16T13:24:18.912Z,38.90
2023-02-16T13:26:45.643Z,38.90
2023-02-16T13:29:12.340Z,38.90
2023-02-16T13:31:39.064Z,39.00
2023-02-16T13:34:05.770Z,38.90
2023-02-16T13:36:32.638Z,38.90
2023-02-16T13:38:59.353Z,39.00
2023-02-16T13:41:25.987Z,39.00
2023-02-16T13:43:52.639Z,39.00
2023-02-16T13:46:19.304Z,39.00
2023-02-16T13:48:45.970Z,39.20
2023-02-16T13:51:12.631Z,39.00
2023-02-16T13:53:39.293Z,39.00
2023-02-16T13:56:06.188Z,39.00
2023-02-16T13:58:32.926Z,39.00
2023-02-16T14:00:59.601Z,38.70
2023-02-16T14:03:26.472Z,38.80
2023-02-16T14:05:53.130Z,38.60
2023-02-16T14:08:19.807Z,38.80
2023-02-16T14:10:46.472Z,38.90
2023-02-16T14:13:13.138Z,38.90
2023-02-16T14:15:39.813Z,39.00
2023-02-16T14:18:06.493Z,39.10
2023-02-16T14:20:33.183Z,39.10
2023-02-16T14:22:59.870Z,39.20
2023-02-16T14:25:26.537Z,39.20
2023-02-16T14:27:53.168Z,39.20
2023-02-16T14:30:19.848Z,39.30
2023-02-16T14:32:46.519Z,39.20
2023-02-16T14:35:13.210Z,39.30
2023-02-16T14:37:39.858Z,39.30
2023-02-16T14:40:08.700Z,39.20
2023-02-16T14:42:35.486Z,39.30
2023-02-16T14:45:02.147Z,39.30
2023-02-16T14:47:28.796Z,39.30
2023-02-16T14:49:55.458Z,39.30
2023-02-16T14:52:22.098Z,39.30
2023-02-16T14:54:48.785Z,39.30
2023-02-16T14:57:15.477Z,39.30
2023-02-16T14:59:42.117Z,39.30
2023-02-16T15:02:08.742Z,39.40
2023-02-16T15:04:35.396Z,39.40
2023-02-16T15:07:02.035Z,39.30
2023-02-16T15:09:28.711Z,39.40
2023-02-16T15:11:55.368Z,39.40
2023-02-16T15:14:22.080Z,39.40
2023-02-16T15:16:48.717Z,39.30
2023-02-16T15:19:15.353Z,39.40
2023-02-16T15:21:42.044Z,39.30
2023-02-16T15:24:08.690Z,39.30
2023-02-16T15:26:35.348Z,39.20
2023-02-16T15:29:01.983Z,39.10
2023-02-16T15:31:28.682Z,39.20
2023-02-16T15:33:55.357Z,39.30
2023-02-16T15:36:22.008Z,39.40
2023-02-16T15:38:48.641Z,39.50
2023-02-16T15:41:15.297Z,39.40
2023-02-16T15:43:41.955Z,39.60
2023-02-16T15:46:08.655Z,39.60
2023-02-16T15:48:35.318Z,39.50
2023-02-16T15:51:01.950Z,39.60
2023-02-16T15:53:28.726Z,39.60
2023-02-16T15:55:55.578Z,39.60
2023-02-16T15:58:22.206Z,39.60
2023-02-16T16:00:48.843Z,39.50
2023-02-16T16:03:15.472Z,39.70
2023-02-16T16:05:42.128Z,39.70
2023-02-16T16:08:08.783Z,39.60
2023-02-16T16:10:35.416Z,39.80
2023-02-16T16:13:02.280Z,39.80
2023-02-16T16:15:28.953Z,39.70
2023-02-16T16:17:55.625Z,39.80
2023-02-16T16:20:22.276Z,39.80
2023-02-16T16:22:48.937Z,39.90
2023-02-16T16:25:15.587Z,39.80
2023-02-16T16:27:42.444Z,39.90
2023-02-16T16:30:09.213Z,39.90
2023-02-16T16:32:35.882Z,39.90
2023-02-16T16:35:02.526Z,39.80
2023-02-16T16:37:29.191Z,39.80
2023-02-16T16:39:55.839Z,39.90
2023-02-16T16:42:22.472Z,40.00
2023-02-16T16:44:49.101Z,40.00
2023-02-16T16:47:15.734Z,41.00
2023-02-16T16:49:42.385Z,40.00
2023-02-16T16:52:09.025Z,40.00
2023-02-16T16:54:35.697Z,39.90
2023-02-16T16:57:02.350Z,40.00
2023-02-16T16:59:29.030Z,40.00
2023-02-16T17:01:55.789Z,40.00
2023-02-16T17:04:22.509Z,40.00
2023-02-16T17:06:49.242Z,40.00
2023-02-16T17:09:16.958Z,39.90
2023-02-16T17:11:43.650Z,40.00
2023-02-16T17:14:10.309Z,40.00
2023-02-16T17:16:36.988Z,40.00
2023-02-16T17:19:03.699Z,40.10
2023-02-16T17:21:30.608Z,40.10
2023-02-16T17:23:57.269Z,40.10
2023-02-16T17:26:23.909Z,40.00
2023-02-16T17:28:50.595Z,40.10
2023-02-16T17:31:17.340Z,40.10
2023-02-16T17:33:44.057Z,40.10
2023-02-16T17:36:10.691Z,40.20
2023-02-16T17:38:37.561Z,40.10
2023-02-16T17:41:04.229Z,40.10
2023-02-16T17:43:30.921Z,40.20
2023-02-16T17:45:57.588Z,40.10
2023-02-16T17:48:24.278Z,40.30
2023-02-16T17:50:50.933Z,40.20
2023-02-16T17:53:17.560Z,40.20
2023-02-16T17:55:44.432Z,41.30
2023-02-16T17:58:11.109Z,40.20
2023-02-16T18:00:37.769Z,40.20
2023-02-16T18:03:04.424Z,40.20
2023-02-16T18:05:31.080Z,40.30
2023-02-16T18:07:57.796Z,40.30
2023-02-16T18:10:24.433Z,40.40
2023-02-16T18:12:51.059Z,40.30
2023-02-16T18:15:17.699Z,40.30
2023-02-16T18:17:44.349Z,40.40
2023-02-16T18:20:11.076Z,40.40
2023-02-16T18:22:37.756Z,40.40
2023-02-16T18:25:04.434Z,40.30
2023-02-16T18:27:31.090Z,40.30
2023-02-16T18:29:57.771Z,40.40
2023-02-16T18:32:24.691Z,40.40
2023-02-16T18:34:51.335Z,40.30
2023-02-16T18:37:17.985Z,40.40
2023-02-16T18:39:44.639Z,40.30
2023-02-16T18:42:11.308Z,40.40
2023-02-16T18:44:37.991Z,40.40
2023-02-16T18:47:04.652Z,40.30
2023-02-16T18:49:31.512Z,40.40
2023-02-16T18:51:58.140Z,40.40
2023-02-16T18:54:24.791Z,40.30
2023-02-16T18:56:51.456Z,40.40
2023-02-16T18:59:18.113Z,40.40
2023-02-16T19:01:44.747Z,40.30
2023-02-16T19:04:11.450Z,40.40
2023-02-16T19:06:38.381Z,40.40
2023-02-16T19:09:05.021Z,40.40
2023-02-16T19:11:31.654Z,40.40
2023-02-16T19:13:58.321Z,40.40
2023-02-16T19:16:24.977Z,40.40
2023-02-16T19:18:51.638Z,40.40
2023-02-16T19:21:18.290Z,40.40
2023-02-16T19:23:44.978Z,40.40
2023-02-16T19:26:11.617Z,40.50
2023-02-16T19:28:38.469Z,40.40
2023-02-16T19:31:05.203Z,40.40
2023-02-16T19:33:32.135Z,40.50
2023-02-16T19:35:58.785Z,40.40
2023-02-16T19:38:25.410Z,40.40
2023-02-16T19:40:52.062Z,40.50
2023-02-16T19:43:18.726Z,40.50
2023-02-16T19:45:45.378Z,40.60
2023-02-16T19:48:12.038Z,40.60
2023-02-16T19:50:38.703Z,40.50
2023-02-16T19:53:05.345Z,40.50
2023-02-16T19:55:31.994Z,40.60
2023-02-16T19:57:58.632Z,40.60
2023-02-16T20:00:25.496Z,40.60
2023-02-16T20:02:52.198Z,40.60
2023-02-16T20:05:18.887Z,40.60
2023-02-16T20:07:45.545Z,40.60
2023-02-16T20:10:12.185Z,40.60
2023-02-16T20:12:38.847Z,40.60
2023-02-16T20:15:05.484Z,40.60
2023-02-16T20:17:32.123Z,40.60
2023-02-16T20:19:58.769Z,40.60
2023-02-16T20:22:25.625Z,40.50
2023-02-16T20:24:52.269Z,40.60
2023-02-16T20:27:18.921Z,40.60
2023-02-16T20:29:45.563Z,40.40
2023-02-16T20:32:12.368Z,41.60
2023-02-16T20:34:39.080Z,40.60
2023-02-16T20:37:05.717Z,40.60
2023-02-16T20:39:32.595Z,40.50
2023-02-16T20:41:59.255Z,40.60
2023-02-16T20:44:25.889Z,40.60
2023-02-16T20:46:52.565Z,40.60
2023-02-16T20:49:19.218Z,40.60
2023-02-16T20:51:45.852Z,40.60
2023-02-16T20:54:12.484Z,40.60
2023-02-16T20:56:39.145Z,40.60
2023-02-16T20:59:05.806Z,40.60
2023-02-16T21:01:32.466Z,40.60
2023-02-16T21:03:59.102Z,41.70
2023-02-16T21:06:25.795Z,40.70
2023-02-16T21:08:52.460Z,40.70
2023-02-16T21:11:19.121Z,40.60
2023-02-16T21:13:45.767Z,40.60
2023-02-16T21:16:12.427Z,40.70
2023-02-16T21:18:40.602Z,40.60
2023-02-16T21:21:07.389Z,40.60
2023-02-16T21:23:34.019Z,40.60
2023-02-16T21:26:00.769Z,40.60
2023-02-16T21:28:27.450Z,40.60
2023-02-16T21:30:54.165Z,40.70
2023-02-16T21:33:21.036Z,40.60
2023-02-16T21:35:47.688Z,40.60
2023-02-16T21:38:14.314Z,40.70
2023-02-16T21:40:41.204Z,40.60
2023-02-16T21:43:07.873Z,40.70
2023-02-16T21:45:34.540Z,40.70
2023-02-16T21:48:01.198Z,40.70
2023-02-16T21:50:27.864Z,40.80
2023-02-16T21:52:54.537Z,40.70
2023-02-16T21:55:21.168Z,40.70
2023-02-16T21:57:47.823Z,40.70
2023-02-16T22:00:14.490Z,40.70
2023-02-16T22:02:41.165Z,40.70
2023-02-16T22:05:07.820Z,40.80
2023-02-16T22:07:34.488Z,40.80
2023-02-16T22:10:01.166Z,40.80
2023-02-16T22:12:27.816Z,40.70
2023-02-16T22:14:54.447Z,40.80
2023-02-16T22:17:21.330Z,40.70
2023-02-16T22:19:47.983Z,40.80
2023-02-16T22:22:14.643Z,40.70
2023-02-16T22:24:41.298Z,40.80
2023-02-16T22:27:07.941Z,40.80
2023-02-16T22:29:34.605Z,40.70
2023-02-16T22:32:01.398Z,40.80
2023-02-16T22:34:28.050Z,40.90
2023-02-16T22:36:54.680Z,40.80
2023-02-16T22:39:21.312Z,40.70
2023-02-16T22:41:47.944Z,40.80
2023-02-16T22:44:14.602Z,40.80
2023-02-16T22:46:41.260Z,40.80
2023-02-16T22:49:07.936Z,40.80
2023-02-16T22:51:34.840Z,40.80
2023-02-16T22:54:01.520Z,40.90
2023-02-16T22:56:28.193Z,40.80
2023-02-16T22:58:57.191Z,40.90
2023-02-16T23:01:24.477Z,40.80
2023-02-16T23:03:51.163Z,40.90
2023-02-16T23:06:17.845Z,40.90
2023-02-16T23:08:45.156Z,40.90
2023-02-16T23:11:11.819Z,40.90
2023-02-16T23:13:38.460Z,40.80
2023-02-16T23:16:05.457Z,40.80
2023-02-16T23:18:32.219Z,40.90
2023-02-16T23:20:59.075Z,40.90
2023-02-16T23:23:25.708Z,40.90
2023-02-16T23:25:52.370Z,40.80
2023-02-16T23:28:19.018Z,40.80
2023-02-16T23:30:45.687Z,40.80
2023-02-16T23:33:12.349Z,42.00
2023-02-16T23:35:38.996Z,40.80
2023-02-16T23:38:05.632Z,40.90
2023-02-16T23:40:32.260Z,40.80
2023-02-16T23:42:59.113Z,40.90
2023-02-16T23:45:25.780Z,41.00
2023-02-16T23:47:52.424Z,41.00
2023-02-16T23:50:19.061Z,41.00
2023-02-16T23:52:45.690Z,40.90
2023-02-16T23:55:12.325Z,40.90
2023-02-16T23:57:38.959Z,40.90
